createdAt,value
2023-03-05T00:01:33.587Z,97697.91
2023-03-05T00:04:03.457Z,97695.47
2023-03-05T00:06:32.816Z,97688.34
2023-03-05T00:09:00.977Z,97688.22
2023-03-05T00:11:31.713Z,97691.41
2023-03-05T00:14:03.555Z,97684.41
2023-03-05T00:16:31.401Z,97679.03
2023-03-05T00:19:01.412Z,97678.88
2023-03-05T00:21:33.172Z,97673.16
2023-03-05T00:24:03.876Z,97684.56
2023-03-05T00:26:34.599Z,97675.59
2023-03-05T00:29:02.612Z,97673.59
2023-03-05T00:31:34.101Z,97675.59
2023-03-05T00:34:06.987Z,97672.25
2023-03-05T00:36:34.783Z,97667.09
2023-03-05T00:39:02.421Z,97656.53
2023-03-05T00:41:29.680Z,97650.38
2023-03-05T00:43:57.381Z,97651.22
2023-03-05T00:46:27.554Z,97653.13
2023-03-05T00:48:56.673Z,97650.16
2023-03-05T00:51:24.978Z,97655.41
2023-03-05T00:53:53.130Z,97651.22
2023-03-05T00:56:21.022Z,97649.41
2023-03-05T00:58:48.775Z,97654.25
2023-03-05T01:01:16.451Z,97648.16
2023-03-05T01:03:44.023Z,97641.31
2023-03-05T01:06:15.136Z,97637.66
2023-03-05T01:08:44.052Z,97637.50
2023-03-05T01:11:11.891Z,97637.38
2023-03-05T01:13:39.653Z,97633.88
2023-03-05T01:16:07.594Z,97641.63
2023-03-05T01:18:35.423Z,97633.56
2023-03-05T01:21:04.276Z,97632.59
2023-03-05T01:23:34.563Z,97634.09
2023-03-05T01:26:01.939Z,97632.44
2023-03-05T01:28:29.736Z,97629.38
2023-03-05T01:30:57.011Z,97634.78
2023-03-05T01:33:24.538Z,97640.88
2023-03-05T01:35:52.429Z,97632.22
2023-03-05T01:38:19.998Z,97635.00
2023-03-05T01:40:47.734Z,97631.66
2023-03-05T01:43:30.819Z,97632.03
2023-03-05T01:46:16.960Z,97634.88
2023-03-05T01:48:51.203Z,97631.44
2023-03-05T01:51:22.839Z,97623.72
2023-03-05T01:53:50.508Z,97622.91
2023-03-05T01:56:18.336Z,97626.25
2023-03-05T01:58:46.395Z,97627.09
2023-03-05T02:01:13.884Z,97622.81
2023-03-05T02:03:43.095Z,97625.13
2023-03-05T02:06:10.845Z,97624.13
2023-03-05T02:08:38.540Z,97616.16
2023-03-05T02:11:06.271Z,97617.47
2023-03-05T02:13:38.721Z,97614.25
2023-03-05T02:16:07.544Z,97613.59
2023-03-05T02:18:35.181Z,97609.09
2023-03-05T02:21:10.415Z,97609.25
2023-03-05T02:23:39.412Z,97606.56
2023-03-05T02:26:10.616Z,97602.41
2023-03-05T02:28:58.610Z,97605.75
2023-03-05T02:31:27.381Z,97600.44
2023-03-05T02:33:58.464Z,97599.38
2023-03-05T02:36:26.235Z,97598.75
2023-03-05T02:38:57.097Z,97602.16
2023-03-05T02:41:25.142Z,97600.66
2023-03-05T02:43:52.768Z,97615.47
2023-03-05T02:46:20.309Z,97596.56
2023-03-05T02:48:47.901Z,97601.78
2023-03-05T02:51:15.515Z,97608.00
2023-03-05T02:53:43.175Z,97594.94
2023-03-05T02:56:10.672Z,97594.63
2023-03-05T02:58:38.261Z,97601.00
2023-03-05T03:01:05.759Z,97597.03
2023-03-05T03:03:33.355Z,97590.28
2023-03-05T03:06:00.708Z,97587.84
2023-03-05T03:08:28.761Z,97587.44
2023-03-05T03:10:56.686Z,97588.19
2023-03-05T03:13:25.394Z,97590.31
2023-03-05T03:16:07.215Z,97582.41
2023-03-05T03:18:35.155Z,97593.78
2023-03-05T03:21:03.039Z,97595.47
2023-03-05T03:23:31.891Z,97596.78
2023-03-05T03:25:59.456Z,97600.19
2023-03-05T03:28:26.974Z,97584.94
2023-03-05T03:30:54.267Z,97589.19
2023-03-05T03:33:22.444Z,97582.28
2023-03-05T03:35:49.782Z,97584.72
2023-03-05T03:38:17.372Z,97579.56
2023-03-05T03:40:44.646Z,97579.66
2023-03-05T03:43:14.279Z,97577.06
2023-03-05T03:45:43.781Z,97580.56
2023-03-05T03:48:11.658Z,97576.56
2023-03-05T03:50:43.280Z,97570.00
2023-03-05T03:53:14.514Z,97563.41
2023-03-05T03:55:46.695Z,97565.47
2023-03-05T03:58:14.346Z,97576.44
2023-03-05T04:00:41.950Z,97571.19
2023-03-05T04:03:09.771Z,97570.69
2023-03-05T04:05:37.088Z,97564.31
2023-03-05T04:08:05.888Z,97562.78
2023-03-05T04:10:33.102Z,97555.06
2023-03-05T04:13:00.681Z,97559.72
2023-03-05T04:15:28.020Z,97559.72
2023-03-05T04:17:55.633Z,97549.19
2023-03-05T04:20:22.920Z,97547.44
2023-03-05T04:22:50.898Z,97540.78
2023-03-05T04:25:18.150Z,97533.19
2023-03-05T04:27:45.686Z,97531.63
2023-03-05T04:30:17.225Z,97523.56
2023-03-05T04:32:44.815Z,97517.16
2023-03-05T04:35:12.216Z,97521.34
2023-03-05T04:37:39.756Z,97518.91
2023-03-05T04:40:08.474Z,97513.03
2023-03-05T04:42:36.104Z,97501.91
2023-03-05T04:45:04.320Z,97506.78
2023-03-05T04:47:31.885Z,97516.88
2023-03-05T04:49:59.151Z,97510.84
2023-03-05T04:52:26.882Z,97506.63
2023-03-05T04:54:54.626Z,97508.03
2023-03-05T04:57:24.016Z,97503.78
2023-03-05T04:59:51.373Z,97512.75
2023-03-05T05:02:18.919Z,97516.09
2023-03-05T05:04:46.227Z,97526.28
2023-03-05T05:07:13.729Z,97529.81
2023-03-05T05:09:41.662Z,97532.19
2023-03-05T05:12:10.598Z,97529.63
2023-03-05T05:14:38.678Z,97528.84
2023-03-05T05:17:06.417Z,97535.78
2023-03-05T05:19:35.482Z,97524.31
2023-03-05T05:22:03.197Z,97531.28
2023-03-05T05:24:30.531Z,97531.13
2023-03-05T05:26:58.077Z,97529.81
2023-03-05T05:29:26.190Z,97536.53
2023-03-05T05:31:54.315Z,97538.97
2023-03-05T05:34:21.559Z,97542.25
2023-03-05T05:36:49.265Z,97533.63
2023-03-05T05:39:17.183Z,97542.44
2023-03-05T05:41:45.779Z,97546.97
2023-03-05T05:44:13.031Z,97549.34
2023-03-05T05:46:40.670Z,97548.44
2023-03-05T05:49:07.978Z,97545.94
2023-03-05T05:51:35.611Z,97544.09
2023-03-05T05:54:02.969Z,97540.63
2023-03-05T05:56:30.500Z,97541.75
2023-03-05T05:58:57.812Z,97541.19
2023-03-05T06:01:32.061Z,97531.53
2023-03-05T06:04:00.285Z,97528.44
2023-03-05T06:06:29.271Z,97530.53
2023-03-05T06:08:57.372Z,97527.78
2023-03-05T06:11:24.886Z,97542.47
2023-03-05T06:13:52.391Z,97534.03
2023-03-05T06:16:24.672Z,97532.69
2023-03-05T06:18:52.919Z,97533.59
2023-03-05T06:21:22.653Z,97539.91
2023-03-05T06:23:51.327Z,97533.53
2023-03-05T06:26:22.293Z,97531.94
2023-03-05T06:28:49.581Z,97526.50
2023-03-05T06:31:27.282Z,97528.78
2023-03-05T06:34:03.575Z,97524.63
2023-03-05T06:36:31.699Z,97523.50
2023-03-05T06:38:59.802Z,97532.53
2023-03-05T06:41:31.570Z,97518.06
2023-03-05T06:44:04.951Z,97517.84
2023-03-05T06:46:37.511Z,97515.00
2023-03-05T06:49:05.348Z,97513.75
2023-03-05T06:51:39.513Z,97511.75
2023-03-05T06:54:12.054Z,97518.16
2023-03-05T06:56:43.236Z,97508.88
2023-03-05T06:59:14.657Z,97514.03
2023-03-05T07:01:43.525Z,97518.41
2023-03-05T07:04:12.931Z,97512.34
2023-03-05T07:06:44.947Z,97500.75
2023-03-05T07:09:16.886Z,97495.00
2023-03-05T07:11:44.609Z,97489.09
2023-03-05T07:14:12.050Z,97501.44
2023-03-05T07:16:39.711Z,97494.44
2023-03-05T07:19:08.068Z,97490.06
2023-03-05T07:21:39.105Z,97485.38
2023-03-05T07:24:08.161Z,97477.25
2023-03-05T07:26:36.344Z,97476.13
2023-03-05T07:29:04.277Z,97472.25
2023-03-05T07:31:32.245Z,97469.28
2023-03-05T07:34:02.180Z,97468.84
2023-03-05T07:36:30.261Z,97468.22
2023-03-05T07:38:58.059Z,97474.94
2023-03-05T07:41:25.424Z,97463.31
2023-03-05T07:43:55.133Z,97471.69
2023-03-05T07:46:27.672Z,97469.66
2023-03-05T07:48:56.046Z,97472.88
2023-03-05T07:51:25.973Z,97456.31
2023-03-05T07:53:56.472Z,97466.31
2023-03-05T07:56:35.539Z,97457.50
2023-03-05T07:59:08.901Z,97447.09
2023-03-05T08:01:37.458Z,97448.69
2023-03-05T08:04:06.999Z,97448.81
2023-03-05T08:06:34.398Z,97445.28
2023-03-05T08:09:01.981Z,97444.03
2023-03-05T08:11:29.296Z,97453.25
2023-03-05T08:13:59.392Z,97454.59
2023-03-05T08:16:27.730Z,97441.72
2023-03-05T08:18:58.252Z,97441.81
2023-03-05T08:21:33.913Z,97438.47
2023-03-05T08:24:08.670Z,97445.22
2023-03-05T08:26:38.800Z,97439.88
2023-03-05T08:29:08.940Z,97442.53
2023-03-05T08:31:38.259Z,97442.22
2023-03-05T08:34:07.105Z,97438.47
2023-03-05T08:36:34.557Z,97437.22
2023-03-05T08:39:02.359Z,97446.91
2023-03-05T08:41:29.892Z,97436.38
2023-03-05T08:43:57.537Z,97434.88
2023-03-05T08:46:24.908Z,97434.13
2023-03-05T08:48:52.772Z,97425.97
2023-03-05T08:51:27.586Z,97426.88
2023-03-05T08:53:59.507Z,97429.88
2023-03-05T08:56:28.618Z,97429.63
2023-03-05T08:58:56.188Z,97427.41
2023-03-05T09:01:24.155Z,97420.63
2023-03-05T09:03:51.954Z,97412.66
2023-03-05T09:06:19.625Z,97411.88
2023-03-05T09:08:47.323Z,97406.53
2023-03-05T09:11:14.998Z,97415.84
2023-03-05T09:13:43.011Z,97410.66
2023-03-05T09:16:16.711Z,97413.16
2023-03-05T09:18:44.934Z,97417.16
2023-03-05T09:21:18.376Z,97418.31
2023-03-05T09:23:49.630Z,97415.88
2023-03-05T09:26:21.705Z,97417.06
2023-03-05T09:28:49.611Z,97412.13
2023-03-05T09:31:17.604Z,97419.13
2023-03-05T09:33:45.502Z,97416.38
2023-03-05T09:36:25.306Z,97409.38
2023-03-05T09:38:54.351Z,97418.19
2023-03-05T09:41:53.648Z,97418.53
2023-03-05T09:44:52.089Z,97418.13
2023-03-05T09:47:46.828Z,97420.75
2023-03-05T09:50:33.261Z,97408.41
2023-03-05T09:53:18.059Z,97424.47
2023-03-05T09:55:55.585Z,97410.38
2023-03-05T09:58:43.540Z,97413.38
2023-03-05T10:01:24.316Z,97406.69
2023-03-05T10:03:59.907Z,97415.41
2023-03-05T10:06:41.945Z,97419.38
2023-03-05T10:09:12.160Z,97408.72
2023-03-05T10:12:03.282Z,97412.22
2023-03-05T10:14:35.261Z,97400.06
2023-03-05T10:17:23.892Z,97403.88
2023-03-05T10:20:15.531Z,97415.41
2023-03-05T10:23:04.702Z,97399.09
2023-03-05T10:25:53.603Z,97406.63
2023-03-05T10:28:57.492Z,97405.44
2023-03-05T10:31:30.965Z,97390.53
2023-03-05T10:34:28.115Z,97390.28
2023-03-05T10:37:21.426Z,97403.03
2023-03-05T10:40:32.727Z,97391.13
2023-03-05T10:43:36.828Z,97378.41
2023-03-05T10:46:05.496Z,97404.47
2023-03-05T10:48:59.851Z,97388.06
2023-03-05T10:51:53.769Z,97395.53
2023-03-05T10:54:41.944Z,97367.06
2023-03-05T10:57:25.709Z,97367.78
2023-03-05T11:00:01.225Z,97354.19
2023-03-05T11:02:28.908Z,97370.72
2023-03-05T11:04:56.370Z,97366.41
2023-03-05T11:07:24.079Z,97358.06
2023-03-05T11:10:17.532Z,97358.50
2023-03-05T11:12:45.935Z,97352.91
2023-03-05T11:15:13.205Z,97349.41
2023-03-05T11:18:04.094Z,97343.28
2023-03-05T11:20:36.641Z,97340.97
2023-03-05T11:23:15.793Z,97351.00
2023-03-05T11:25:55.877Z,97335.72
2023-03-05T11:28:34.249Z,97341.13
2023-03-05T11:31:15.906Z,97332.06
2023-03-05T11:34:29.098Z,97331.81
2023-03-05T11:36:57.060Z,97322.72
2023-03-05T11:39:30.477Z,97329.28
2023-03-05T11:42:15.979Z,97329.13
2023-03-05T11:44:56.034Z,97325.88
2023-03-05T11:47:32.400Z,97316.47
2023-03-05T11:50:19.118Z,97299.44
2023-03-05T11:52:54.727Z,97310.06
2023-03-05T11:55:28.811Z,97304.75
2023-03-05T11:58:28.333Z,97324.75
2023-03-05T12:00:57.248Z,97301.19
2023-03-05T12:03:45.342Z,97298.44
2023-03-05T12:06:55.789Z,97314.91
2023-03-05T12:09:47.912Z,97308.31
2023-03-05T12:12:53.007Z,97304.75
2023-03-05T12:15:35.106Z,97288.31
2023-03-05T12:18:43.884Z,97278.56
2023-03-05T12:21:34.767Z,97302.66
2023-03-05T12:24:24.331Z,97290.50
2023-03-05T12:27:02.325Z,97281.47
2023-03-05T12:29:45.428Z,97288.91
2023-03-05T12:32:33.052Z,97275.47
2023-03-05T12:35:04.464Z,97273.63
2023-03-05T12:37:31.735Z,97281.91
2023-03-05T12:40:23.241Z,97286.09
2023-03-05T12:42:59.690Z,97288.03
2023-03-05T12:45:38.193Z,97287.53
2023-03-05T12:48:10.847Z,97275.53
2023-03-05T12:50:38.545Z,97295.34
2023-03-05T12:53:21.108Z,97279.06
2023-03-05T12:56:22.298Z,97292.44
2023-03-05T12:58:58.795Z,97282.81
2023-03-05T13:01:36.490Z,97295.31
2023-03-05T13:04:28.410Z,97297.41
2023-03-05T13:07:07.370Z,97290.47
2023-03-05T13:09:36.413Z,97281.13
2023-03-05T13:12:13.221Z,97293.59
2023-03-05T13:15:15.701Z,97284.94
2023-03-05T13:18:03.603Z,97310.16
2023-03-05T13:20:42.792Z,97292.94
2023-03-05T13:23:27.454Z,97296.66
2023-03-05T13:26:20.016Z,97305.13
2023-03-05T13:29:11.659Z,97300.28
2023-03-05T13:31:56.462Z,97294.13
2023-03-05T13:34:44.682Z,97292.47
2023-03-05T13:37:25.112Z,97295.44
2023-03-05T13:39:59.752Z,97292.16
2023-03-05T13:42:34.682Z,97287.78
2023-03-05T13:45:28.912Z,97284.97
2023-03-05T13:48:03.066Z,97279.28
2023-03-05T13:50:40.503Z,97284.41
2023-03-05T13:53:31.395Z,97285.88
2023-03-05T13:56:03.780Z,97271.75
2023-03-05T13:58:52.756Z,97264.41
2023-03-05T14:01:40.760Z,97279.81
2023-03-05T14:04:15.635Z,97263.56
2023-03-05T14:06:58.356Z,97255.22
2023-03-05T14:09:32.062Z,97264.94
2023-03-05T14:12:38.055Z,97252.97
2023-03-05T14:15:29.509Z,97254.63
2023-03-05T14:18:12.003Z,97262.63
2023-03-05T14:20:59.109Z,97249.31
2023-03-05T14:23:38.935Z,97244.59
2023-03-05T14:26:34.476Z,97243.38
2023-03-05T14:29:07.086Z,97250.28
2023-03-05T14:31:56.470Z,97248.97
2023-03-05T14:34:31.886Z,97232.84
2023-03-05T14:37:17.526Z,97230.78
2023-03-05T14:39:55.044Z,97234.75
2023-03-05T14:42:49.915Z,97241.63
2023-03-05T14:45:22.377Z,97231.13
2023-03-05T14:47:56.132Z,97229.47
2023-03-05T14:50:32.231Z,97230.28
2023-03-05T14:53:06.844Z,97227.34
2023-03-05T14:55:38.389Z,97210.66
2023-03-05T14:58:15.429Z,97217.31
2023-03-05T15:00:44.474Z,97222.69
2023-03-05T15:03:17.590Z,97225.72
2023-03-05T15:05:51.138Z,97224.28
2023-03-05T15:08:30.481Z,97220.16
2023-03-05T15:11:00.125Z,97235.06
2023-03-05T15:13:28.074Z,97224.84
2023-03-05T15:15:56.073Z,97225.38
2023-03-05T15:18:23.917Z,97212.97
2023-03-05T15:20:54.967Z,97218.81
2023-03-05T15:23:22.312Z,97204.91
2023-03-05T15:25:50.966Z,97205.16
2023-03-05T15:28:18.819Z,97195.31
2023-03-05T15:30:48.093Z,97208.91
2023-03-05T15:33:17.863Z,97208.47
2023-03-05T15:35:46.281Z,97210.56
2023-03-05T15:38:13.700Z,97209.31
2023-03-05T15:40:41.586Z,97213.22
2023-03-05T15:43:09.781Z,97226.63
2023-03-05T15:45:37.653Z,97221.13
2023-03-05T15:48:05.183Z,97228.63
2023-03-05T15:50:32.996Z,97230.94
2023-03-05T15:53:00.380Z,97227.19
2023-03-05T15:55:28.002Z,97230.59
2023-03-05T15:57:55.518Z,97231.59
2023-03-05T16:00:31.119Z,97235.88
2023-03-05T16:02:58.706Z,97234.28
2023-03-05T16:05:26.576Z,97231.28
2023-03-05T16:07:54.962Z,97225.69
2023-03-05T16:10:29.513Z,97219.84
2023-03-05T16:13:13.610Z,97227.66
2023-03-05T16:15:43.307Z,97219.66
2023-03-05T16:18:16.758Z,97225.72
2023-03-05T16:20:45.593Z,97217.34
2023-03-05T16:23:12.877Z,97217.66
2023-03-05T16:25:40.512Z,97227.53
2023-03-05T16:28:07.830Z,97221.88
2023-03-05T16:30:35.427Z,97217.56
2023-03-05T16:33:02.664Z,97237.34
2023-03-05T16:35:30.918Z,97223.09
2023-03-05T16:37:58.735Z,97219.75
2023-03-05T16:40:34.259Z,97229.00
2023-03-05T16:43:11.975Z,97227.91
2023-03-05T16:45:39.564Z,97226.41
2023-03-05T16:48:07.111Z,97238.78
2023-03-05T16:50:34.713Z,97234.06
2023-03-05T16:53:02.005Z,97238.34
2023-03-05T16:55:29.664Z,97236.69
2023-03-05T16:57:56.976Z,97238.19
2023-03-05T17:00:24.907Z,97240.19
2023-03-05T17:02:52.261Z,97241.94
2023-03-05T17:05:19.981Z,97246.56
2023-03-05T17:07:47.468Z,97248.78
2023-03-05T17:10:15.686Z,97243.47
2023-03-05T17:12:43.791Z,97256.97
2023-03-05T17:15:11.565Z,97259.28
2023-03-05T17:17:39.632Z,97253.28
2023-03-05T17:20:08.606Z,97260.81
2023-03-05T17:22:35.983Z,97257.13
2023-03-05T17:25:03.698Z,97267.25
2023-03-05T17:27:31.072Z,97264.91
2023-03-05T17:29:58.846Z,97258.16
2023-03-05T17:32:26.400Z,97254.59
2023-03-05T17:34:55.828Z,97258.78
2023-03-05T17:37:23.879Z,97263.41
2023-03-05T17:39:51.518Z,97269.41
2023-03-05T17:42:21.631Z,97265.75
2023-03-05T17:47:23.351Z,97260.09
2023-03-05T17:49:51.427Z,97259.00
2023-03-05T17:52:21.086Z,97252.28
2023-03-05T17:54:50.526Z,97249.69
2023-03-05T17:57:17.865Z,97245.75
2023-03-05T17:59:45.990Z,97244.75
2023-03-05T18:02:13.420Z,97248.72
2023-03-05T18:04:41.378Z,97243.78
2023-03-05T18:07:08.654Z,97249.91
2023-03-05T18:09:36.557Z,97238.78
2023-03-05T18:12:04.090Z,97243.19
2023-03-05T18:14:31.762Z,97239.84
2023-03-05T18:17:00.349Z,97239.47
2023-03-05T18:19:27.982Z,97234.44
2023-03-05T18:21:55.335Z,97238.84
2023-03-05T18:24:23.005Z,97236.56
2023-03-05T18:26:50.345Z,97235.22
2023-03-05T18:29:18.850Z,97233.78
2023-03-05T18:31:46.333Z,97226.66
2023-03-05T18:34:13.978Z,97240.75
2023-03-05T18:36:41.463Z,97238.19
2023-03-05T18:39:12.167Z,97249.25
2023-03-05T18:41:42.406Z,97244.63
2023-03-05T18:44:10.191Z,97242.72
2023-03-05T18:46:37.622Z,97237.34
2023-03-05T18:49:05.153Z,97239.09
2023-03-05T18:51:33.859Z,97236.97
2023-03-05T18:54:02.463Z,97232.41
2023-03-05T18:56:30.196Z,97234.69
2023-03-05T18:58:58.934Z,97234.97
2023-03-05T19:01:26.800Z,97239.38
2023-03-05T19:03:54.810Z,97231.34
2023-03-05T19:06:22.118Z,97234.44
2023-03-05T19:08:56.995Z,97235.31
2023-03-05T19:11:25.274Z,97231.88
2023-03-05T19:13:53.011Z,97225.84
2023-03-05T19:16:24.733Z,97226.06
2023-03-05T19:19:13.812Z,97226.81
2023-03-05T19:22:04.133Z,97227.59
2023-03-05T19:24:32.605Z,97227.72
2023-03-05T19:27:01.512Z,97232.66
2023-03-05T19:29:33.151Z,97220.44
2023-03-05T19:32:00.672Z,97223.63
2023-03-05T19:34:28.365Z,97226.66
2023-03-05T19:36:55.997Z,97227.25
2023-03-05T19:39:23.714Z,97223.47
2023-03-05T19:41:51.660Z,97221.44
2023-03-05T19:44:19.463Z,97230.66
2023-03-05T19:46:48.633Z,97220.59
2023-03-05T19:49:18.365Z,97214.75
2023-03-05T19:51:46.613Z,97221.50
2023-03-05T19:54:17.182Z,97215.72
2023-03-05T19:56:46.556Z,97220.03
2023-03-05T19:59:21.148Z,97220.56
2023-03-05T20:01:50.040Z,97214.25
2023-03-05T20:04:21.960Z,97218.41
2023-03-05T20:06:49.536Z,97214.41
2023-03-05T20:09:17.750Z,97221.88
2023-03-05T20:11:45.318Z,97209.16
2023-03-05T20:14:14.803Z,97208.09
2023-03-05T20:16:43.460Z,97205.75
2023-03-05T20:19:18.092Z,97208.50
2023-03-05T20:21:45.914Z,97202.44
2023-03-05T20:24:19.072Z,97202.94
2023-03-05T20:26:47.528Z,97200.22
2023-03-05T20:29:18.128Z,97194.31
2023-03-05T20:31:47.430Z,97184.81
2023-03-05T20:34:18.781Z,97192.16
2023-03-05T20:36:46.740Z,97184.81
2023-03-05T20:39:14.420Z,97175.84
2023-03-05T20:41:42.082Z,97174.84
2023-03-05T20:44:11.492Z,97182.53
2023-03-05T20:46:49.692Z,97177.28
2023-03-05T20:49:18.175Z,97182.13
2023-03-05T20:51:50.350Z,97173.00
2023-03-05T20:54:18.050Z,97179.50
2023-03-05T20:56:45.418Z,97175.09
2023-03-05T20:59:13.307Z,97181.94
2023-03-05T21:01:41.152Z,97175.59
2023-03-05T21:04:09.392Z,97166.19
2023-03-05T21:06:37.152Z,97164.28
2023-03-05T21:09:05.608Z,97168.69
2023-03-05T21:11:35.573Z,97163.38
2023-03-05T21:14:03.410Z,97168.53
2023-03-05T21:16:30.882Z,97167.00
2023-03-05T21:18:58.536Z,97162.94
2023-03-05T21:21:25.942Z,97159.13
2023-03-05T21:23:53.722Z,97173.19
2023-03-05T21:26:21.394Z,97160.38
2023-03-05T21:28:49.222Z,97156.44
2023-03-05T21:31:21.286Z,97153.28
2023-03-05T21:33:49.890Z,97159.28
2023-03-05T21:36:18.944Z,97158.53
2023-03-05T21:38:49.089Z,97152.03
2023-03-05T21:41:18.314Z,97160.63
2023-03-05T21:43:46.326Z,97148.41
2023-03-05T21:46:14.784Z,97149.88
2023-03-05T21:48:42.376Z,97159.28
2023-03-05T21:51:11.550Z,97157.63
2023-03-05T21:53:39.338Z,97153.78
2023-03-05T21:56:17.938Z,97151.75
2023-03-05T21:58:45.846Z,97146.69
2023-03-05T22:01:16.338Z,97151.69
2023-03-05T22:03:44.082Z,97147.53
2023-03-05T22:06:14.731Z,97149.19
2023-03-05T22:08:42.651Z,97146.53
2023-03-05T22:11:13.392Z,97145.63
2023-03-05T22:13:41.917Z,97147.19
2023-03-05T22:16:10.583Z,97145.53
2023-03-05T22:18:38.418Z,97147.69
2023-03-05T22:21:14.585Z,97141.06
2023-03-05T22:23:42.185Z,97127.22
2023-03-05T22:26:09.527Z,97139.13
2023-03-05T22:28:39.087Z,97132.63
2023-03-05T22:31:06.797Z,97130.56
2023-03-05T22:33:34.730Z,97138.72
2023-03-05T22:36:10.024Z,97133.25
2023-03-05T22:38:37.721Z,97131.59
2023-03-05T22:41:11.730Z,97130.00
2023-03-05T22:43:40.359Z,97126.34
2023-03-05T22:46:21.146Z,97128.91
2023-03-05T22:48:49.132Z,97124.44
2023-03-05T22:51:18.468Z,97120.63
2023-03-05T22:53:46.888Z,97126.94
2023-03-05T22:56:18.401Z,97128.50
2023-03-05T22:58:45.982Z,97122.44
2023-03-05T23:01:25.538Z,97127.84
2023-03-05T23:03:58.726Z,97119.94
2023-03-05T23:06:26.142Z,97122.03
2023-03-05T23:08:53.756Z,97124.25
2023-03-05T23:11:21.326Z,97121.53
2023-03-05T23:13:48.828Z,97124.53
2023-03-05T23:16:16.174Z,97115.13
2023-03-05T23:18:43.785Z,97108.41
2023-03-05T23:21:11.129Z,97116.97
2023-03-05T23:23:38.734Z,97108.63
2023-03-05T23:26:06.146Z,97111.22
2023-03-05T23:28:33.854Z,97109.78
2023-03-05T23:31:02.338Z,97109.78
2023-03-05T23:33:30.173Z,97112.53
2023-03-05T23:36:00.707Z,97109.00
2023-03-05T23:38:30.549Z,97116.44
2023-03-05T23:41:01.249Z,97115.84
2023-03-05T23:43:29.924Z,97115.69
2023-03-05T23:45:57.481Z,97118.09
2023-03-05T23:48:27.223Z,97120.53
2023-03-05T23:50:55.588Z,97124.75
2023-03-05T23:53:31.203Z,97117.94
2023-03-05T23:55:58.674Z,97120.09
2023-03-05T23:58:26.372Z,97122.59
